Time;durP1;ratioP1;P1;durP2;ratioP2;P2;SDS_P1;SDS_P2;PMS_P1;PMS_P2;Temp;Humidity;BMP_temperature;BMP_pressure;BME280_temperature;BME280_humidity;BME280_pressure;Samples;Min_cycle;Max_cycle;Signal;HPM_P1;HPM_P2
2023/03/14 00:01:48;;;;;;;8.10;2.33;;;26.70;99.90;;;;;;5030008;28;20021;-62
2023/03/14 00:04:16;;;;;;;16.75;2.08;;;26.80;99.90;;;;;;5032224;28;20109;-62
2023/03/14 00:06:43;;;;;;;6.93;2.08;;;26.90;99.90;;;;;;5029247;28;20022;-62
2023/03/14 00:09:10;;;;;;;7.78;1.52;;;26.80;99.90;;;;;;5030215;28;20419;-67
2023/03/14 00:11:38;;;;;;;7.78;2.65;;;26.90;99.90;;;;;;5031214;28;20014;-64
2023/03/14 00:14:05;;;;;;;7.68;1.80;;;26.50;99.90;;;;;;5031478;28;20041;-62
2023/03/14 00:16:33;;;;;;;6.70;1.60;;;26.10;99.90;;;;;;5031419;28;20034;-62
2023/03/14 00:19:01;;;;;;;8.73;1.98;;;26.00;99.90;;;;;;5031502;28;20021;-64
2023/03/14 00:21:29;;;;;;;5.72;1.77;;;26.10;99.90;;;;;;5036074;28;20029;-62
2023/03/14 00:23:56;;;;;;;5.40;1.50;;;26.10;99.90;;;;;;5031930;28;20099;-63
2023/03/14 00:26:24;;;;;;;12.20;1.70;;;26.00;99.90;;;;;;5037055;28;20112;-62
2023/03/14 00:28:54;;;;;;;12.23;2.83;;;26.40;99.90;;;;;;5030326;28;20040;-66
2023/03/14 00:31:22;;;;;;;10.00;1.92;;;26.90;99.90;;;;;;5026129;28;20076;-60
2023/03/14 00:33:53;;;;;;;10.98;2.20;;;26.80;99.90;;;;;;5031847;28;20033;-62
2023/03/14 00:36:21;;;;;;;6.30;1.63;;;27.10;99.90;;;;;;5030979;28;20121;-61
2023/03/14 00:38:51;;;;;;;6.05;1.60;;;26.40;99.90;;;;;;5029426;28;20401;-62
2023/03/14 00:41:23;;;;;;;7.90;1.50;;;26.10;99.90;;;;;;5029100;28;20029;-62
2023/03/14 00:43:51;;;;;;;5.75;1.75;;;25.80;99.90;;;;;;5042949;28;20036;-61
2023/03/14 00:46:19;;;;;;;8.10;1.48;;;25.50;99.90;;;;;;5034963;28;20024;-62
2023/03/14 00:48:47;;;;;;;7.82;2.13;;;25.60;99.90;;;;;;5037945;28;20713;-62
2023/03/14 00:51:15;;;;;;;8.70;1.98;;;25.70;99.90;;;;;;5027254;28;20029;-62
2023/03/14 00:53:43;;;;;;;7.13;1.75;;;26.00;99.90;;;;;;5035567;28;20033;-62
2023/03/14 00:56:12;;;;;;;4.65;1.25;;;26.10;99.90;;;;;;5037207;28;20526;-62
2023/03/14 00:58:40;;;;;;;5.53;1.42;;;26.30;99.90;;;;;;5038163;28;20793;-62
2023/03/14 01:01:16;;;;;;;5.50;1.60;;;26.60;99.90;;;;;;5026639;28;20060;-62
2023/03/14 01:03:44;;;;;;;5.70;1.58;;;26.80;99.90;;;;;;5025662;28;20055;-61
2023/03/14 01:06:13;;;;;;;6.10;2.10;;;26.90;99.90;;;;;;5035089;28;20041;-62
2023/03/14 01:08:41;;;;;;;9.25;2.17;;;26.70;99.90;;;;;;5042943;28;20511;-61
2023/03/14 01:11:12;;;;;;;6.32;1.38;;;26.60;99.90;;;;;;5037291;28;20017;-61
2023/03/14 01:13:39;;;;;;;7.10;2.40;;;26.40;99.90;;;;;;5039692;28;20108;-61
2023/03/14 01:16:12;;;;;;;5.72;1.90;;;26.40;99.90;;;;;;5032281;28;20045;-65
2023/03/14 01:18:41;;;;;;;6.60;1.95;;;26.00;99.90;;;;;;5027757;28;20029;-61
2023/03/14 01:21:21;;;;;;;4.60;1.30;;;25.70;99.90;;;;;;5033791;28;20021;-61
2023/03/14 01:23:49;;;;;;;5.75;1.23;;;25.90;99.90;;;;;;5032015;28;20398;-62
2023/03/14 01:26:20;;;;;;;8.75;1.50;;;25.70;99.90;;;;;;5046603;28;20135;-62
2023/03/14 01:28:48;;;;;;;5.15;1.40;;;25.50;99.90;;;;;;5028776;28;20593;-63
2023/03/14 01:31:16;;;;;;;3.50;1.15;;;25.20;99.90;;;;;;5024648;28;20025;-61
2023/03/14 01:33:43;;;;;;;5.70;1.10;;;24.60;99.90;;;;;;5017895;28;20044;-62
2023/03/14 01:36:12;;;;;;;3.15;1.15;;;24.20;99.90;;;;;;5044250;28;20014;-62
2023/03/14 01:38:40;;;;;;;4.78;1.35;;;23.80;99.90;;;;;;5039100;28;20036;-61
2023/03/14 01:41:20;;;;;;;4.55;1.00;;;23.40;99.90;;;;;;5037414;28;20052;-61
2023/03/14 01:43:48;;;;;;;5.95;1.70;;;23.00;99.90;;;;;;5044562;28;20788;-61
2023/03/14 01:46:26;;;;;;;5.45;1.50;;;22.50;99.90;;;;;;5035726;28;20381;-61
2023/03/14 01:49:08;;;;;;;2.35;0.95;;;22.20;99.90;;;;;;5038545;28;20019;-61
2023/03/14 01:51:53;;;;;;;5.00;1.50;;;21.90;99.90;;;;;;5041801;28;20032;-61
2023/03/14 01:54:41;;;;;;;6.53;1.63;;;21.70;99.90;;;;;;5042946;28;20111;-62
2023/03/14 01:57:24;;;;;;;9.65;3.83;;;21.30;99.90;;;;;;5030482;28;20506;-61
2023/03/14 02:00:15;;;;;;;10.75;2.60;;;21.10;99.90;;;;;;5044598;28;20021;-61
2023/03/14 02:02:50;;;;;;;8.77;2.13;;;20.80;99.90;;;;;;5028736;28;20041;-63
2023/03/14 02:05:35;;;;;;;9.02;2.00;;;20.70;99.90;;;;;;5043603;28;20417;-62
2023/03/14 02:08:06;;;;;;;8.02;2.83;;;20.50;99.90;;;;;;5018057;28;20491;-62
2023/03/14 02:10:38;;;;;;;10.98;5.95;;;20.30;99.90;;;;;;5041123;28;20029;-66
2023/03/14 02:13:07;;;;;;;7.20;2.85;;;20.30;99.90;;;;;;5042352;28;20028;-66
2023/03/14 02:15:35;;;;;;;7.03;2.28;;;20.10;99.90;;;;;;5032542;28;20022;-65
2023/03/14 02:18:04;;;;;;;12.70;2.50;;;20.10;99.90;;;;;;5045270;28;20147;-66
2023/03/14 02:20:52;;;;;;;13.05;2.40;;;20.10;99.90;;;;;;5036983;28;20020;-67
2023/03/14 02:23:46;;;;;;;12.73;2.85;;;20.10;99.90;;;;;;5045546;28;20254;-64
2023/03/14 02:26:24;;;;;;;15.73;6.80;;;20.00;99.90;;;;;;5020411;28;20032;-67
2023/03/14 02:28:53;;;;;;;18.33;6.38;;;20.00;99.90;;;;;;5035774;28;20032;-66
2023/03/14 02:31:22;;;;;;;14.75;5.47;;;19.90;99.90;;;;;;5021915;28;20078;-67
2023/03/14 02:33:51;;;;;;;11.82;3.28;;;20.00;99.90;;;;;;5022425;28;20616;-67
2023/03/14 02:36:19;;;;;;;13.63;2.65;;;20.00;99.90;;;;;;5025190;28;20049;-65
2023/03/14 02:39:03;;;;;;;12.65;3.00;;;20.10;99.90;;;;;;5024722;28;20017;-65
2023/03/14 02:41:31;;;;;;;13.38;3.15;;;20.20;99.90;;;;;;5043889;28;20298;-65
2023/03/14 02:43:59;;;;;;;13.27;3.00;;;20.20;99.90;;;;;;5029699;28;20120;-65
2023/03/14 02:46:27;;;;;;;8.18;2.90;;;20.30;99.90;;;;;;5035413;28;20009;-66
2023/03/14 02:49:10;;;;;;;9.63;3.58;;;20.40;99.90;;;;;;5028568;28;20087;-64
2023/03/14 02:51:40;;;;;;;11.68;3.03;;;20.50;99.90;;;;;;5045177;28;20120;-64
2023/03/14 02:54:08;;;;;;;10.07;2.90;;;20.60;99.90;;;;;;5029272;28;20017;-65
2023/03/14 02:56:37;;;;;;;7.28;2.10;;;20.50;99.90;;;;;;5029005;28;20035;-65
2023/03/14 02:59:05;;;;;;;15.70;3.15;;;20.40;99.90;;;;;;5028980;28;20028;-67
2023/03/14 03:01:35;;;;;;;9.77;2.40;;;20.40;99.90;;;;;;5028190;28;20030;-67
2023/03/14 03:04:03;;;;;;;8.70;2.92;;;20.40;99.90;;;;;;5025077;28;20060;-67
2023/03/14 03:06:30;;;;;;;9.52;2.80;;;20.40;99.90;;;;;;5027307;28;20034;-64
2023/03/14 03:08:58;;;;;;;10.60;3.28;;;20.40;99.90;;;;;;5028642;28;20406;-66
2023/03/14 03:11:25;;;;;;;8.15;3.20;;;20.40;99.90;;;;;;5038834;28;20032;-66
2023/03/14 03:13:53;;;;;;;11.00;3.83;;;20.40;99.90;;;;;;5030725;28;20112;-66
2023/03/14 03:16:21;;;;;;;13.65;2.67;;;20.40;99.90;;;;;;5045500;28;20700;-66
2023/03/14 03:18:48;;;;;;;8.48;3.42;;;20.40;99.90;;;;;;5028710;28;20032;-65
2023/03/14 03:21:16;;;;;;;10.75;3.40;;;20.50;99.90;;;;;;5033197;28;20509;-64
2023/03/14 03:23:43;;;;;;;12.05;3.80;;;20.50;99.90;;;;;;5044454;28;20045;-63
2023/03/14 03:26:11;;;;;;;9.60;3.08;;;20.40;99.90;;;;;;5023085;28;20021;-63
2023/03/14 03:28:38;;;;;;;17.20;3.10;;;20.50;99.90;;;;;;5039552;28;20032;-63
2023/03/14 03:31:11;;;;;;;15.10;3.47;;;20.50;99.90;;;;;;5047685;28;20064;-63
2023/03/14 03:33:39;;;;;;;8.35;2.95;;;20.60;99.90;;;;;;5035540;28;20502;-63
2023/03/14 03:36:07;;;;;;;10.13;2.83;;;20.60;99.90;;;;;;5038690;28;20504;-62
2023/03/14 03:38:34;;;;;;;8.77;2.63;;;20.60;99.90;;;;;;5038965;28;20025;-62
2023/03/14 03:41:11;;;;;;;16.02;2.97;;;20.70;99.90;;;;;;5028326;28;20355;-62
2023/03/14 03:43:39;;;;;;;12.27;3.50;;;20.70;99.90;;;;;;5027981;28;20468;-62
2023/03/14 03:46:07;;;;;;;11.38;3.10;;;20.70;99.90;;;;;;5030790;28;20147;-62
2023/03/14 03:48:35;;;;;;;12.60;3.95;;;20.70;99.90;;;;;;5029472;28;20029;-63
2023/03/14 03:51:03;;;;;;;16.50;5.03;;;20.70;99.90;;;;;;5017905;28;20048;-62
2023/03/14 03:53:30;;;;;;;17.83;3.90;;;20.80;99.90;;;;;;5021584;28;20103;-62
2023/03/14 03:56:01;;;;;;;11.82;3.63;;;21.00;99.90;;;;;;5018554;28;20025;-62
2023/03/14 03:58:28;;;;;;;15.30;3.72;;;21.30;99.90;;;;;;5021327;28;20497;-61
2023/03/14 04:00:56;;;;;;;13.52;3.45;;;21.30;99.90;;;;;;5030742;28;20034;-61
2023/03/14 04:03:23;;;;;;;10.52;3.10;;;21.30;99.90;;;;;;5023441;28;20056;-61
2023/03/14 04:06:09;;;;;;;13.60;3.33;;;21.40;99.90;;;;;;5042442;28;20050;-61
2023/03/14 04:08:37;;;;;;;13.30;3.03;;;21.60;99.90;;;;;;5026928;28;20025;-62
2023/03/14 04:11:05;;;;;;;9.80;2.78;;;21.60;99.90;;;;;;5042403;28;20032;-61
2023/03/14 04:13:32;;;;;;;10.38;3.05;;;21.60;99.90;;;;;;5037356;28;20029;-62
2023/03/14 04:16:00;;;;;;;13.77;3.30;;;21.60;99.90;;;;;;5026431;28;20089;-62
2023/03/14 04:18:31;;;;;;;9.23;2.53;;;21.60;99.90;;;;;;5031272;28;20036;-61
2023/03/14 04:21:01;;;;;;;5.05;1.73;;;21.60;99.90;;;;;;5025384;28;20343;-63
2023/03/14 04:23:29;;;;;;;5.88;2.75;;;21.70;99.90;;;;;;5024888;28;20171;-64
2023/03/14 04:25:57;;;;;;;8.27;2.03;;;21.30;99.90;;;;;;5025066;28;20052;-64
2023/03/14 04:28:24;;;;;;;7.75;1.70;;;21.20;99.90;;;;;;5014527;28;20025;-63
2023/03/14 04:30:52;;;;;;;9.82;2.35;;;21.20;99.90;;;;;;5028091;28;20021;-65
2023/03/14 04:33:19;;;;;;;5.72;2.03;;;21.30;99.90;;;;;;5016555;28;20087;-65
2023/03/14 04:35:47;;;;;;;7.22;2.25;;;21.40;99.90;;;;;;5015636;28;20064;-65
2023/03/14 04:38:15;;;;;;;5.88;1.92;;;21.50;99.90;;;;;;5021132;28;20550;-65
2023/03/14 04:40:44;;;;;;;8.63;1.50;;;21.60;99.90;;;;;;5018063;28;20033;-64
2023/03/14 04:43:12;;;;;;;4.68;1.65;;;21.60;99.90;;;;;;5016157;28;20600;-64
2023/03/14 04:45:43;;;;;;;6.60;1.85;;;21.80;99.90;;;;;;5023007;28;20269;-63
2023/03/14 04:48:10;;;;;;;7.05;1.90;;;21.90;99.90;;;;;;5024429;28;20141;-65
2023/03/14 04:50:38;;;;;;;6.35;1.45;;;21.90;99.90;;;;;;5020230;28;20108;-64
2023/03/14 04:53:06;;;;;;;4.57;1.40;;;22.00;99.90;;;;;;5022808;28;20359;-64
2023/03/14 04:55:35;;;;;;;4.57;2.08;;;22.10;99.90;;;;;;5021135;28;20461;-64
2023/03/14 04:58:02;;;;;;;7.95;2.53;;;22.30;99.90;;;;;;5036606;28;20117;-64
2023/03/14 05:00:29;;;;;;;9.10;2.08;;;22.40;99.90;;;;;;5026171;28;20087;-63
2023/03/14 05:03:00;;;;;;;5.25;2.38;;;22.60;99.90;;;;;;5032849;28;20187;-63
2023/03/14 05:05:30;;;;;;;10.73;3.42;;;22.70;99.90;;;;;;5025680;28;20124;-64
2023/03/14 05:07:57;;;;;;;9.63;1.92;;;22.90;99.90;;;;;;5028517;28;20552;-63
2023/03/14 05:10:25;;;;;;;4.93;1.95;;;23.00;99.90;;;;;;5025613;28;20482;-64
2023/03/14 05:12:52;;;;;;;8.05;3.28;;;23.00;99.90;;;;;;5028798;28;20375;-64
2023/03/14 05:15:20;;;;;;;6.25;1.88;;;23.10;99.90;;;;;;5032045;28;20387;-63
2023/03/14 05:17:48;;;;;;;5.78;1.63;;;23.00;99.90;;;;;;5031873;28;20088;-62
2023/03/14 05:20:16;;;;;;;5.60;2.28;;;23.00;99.90;;;;;;5027901;28;20514;-59
2023/03/14 05:22:44;;;;;;;7.82;2.13;;;23.00;99.90;;;;;;5025769;28;20094;-60
2023/03/14 05:25:11;;;;;;;7.07;1.73;;;23.10;99.90;;;;;;5025559;28;20026;-60
2023/03/14 05:27:39;;;;;;;11.27;2.10;;;23.10;99.90;;;;;;5029581;28;20140;-59
2023/03/14 05:30:07;;;;;;;5.72;1.73;;;23.10;99.90;;;;;;5027450;28;20440;-59
2023/03/14 05:32:35;;;;;;;7.10;1.70;;;23.10;99.90;;;;;;5020421;28;20036;-60
2023/03/14 05:35:03;;;;;;;6.93;2.25;;;23.10;99.90;;;;;;5027530;28;20020;-59
2023/03/14 05:37:30;;;;;;;4.10;1.50;;;23.20;99.90;;;;;;5025595;28;20041;-59
2023/03/14 05:39:58;;;;;;;6.47;1.63;;;23.20;99.90;;;;;;5026491;28;20026;-59
2023/03/14 05:42:25;;;;;;;6.15;2.08;;;23.20;99.90;;;;;;5028381;28;20021;-59
2023/03/14 05:44:52;;;;;;;7.40;1.80;;;23.30;99.90;;;;;;5026573;28;20021;-59
2023/03/14 05:47:20;;;;;;;7.13;2.10;;;23.40;99.90;;;;;;5027490;28;20429;-59
2023/03/14 05:49:48;;;;;;;7.32;1.70;;;23.50;99.90;;;;;;5041316;28;20021;-60
2023/03/14 05:52:15;;;;;;;5.70;1.92;;;23.60;99.90;;;;;;5034631;28;20103;-59
2023/03/14 05:54:43;;;;;;;4.20;2.38;;;23.70;99.90;;;;;;5034995;28;20123;-60
2023/03/14 05:57:10;;;;;;;5.00;1.67;;;23.70;99.90;;;;;;5042096;28;20359;-60
2023/03/14 05:59:38;;;;;;;8.68;1.92;;;23.70;99.90;;;;;;5036580;28;20101;-59
2023/03/14 06:02:05;;;;;;;9.48;2.03;;;23.60;99.90;;;;;;5034779;28;20516;-60
2023/03/14 06:04:33;;;;;;;7.50;1.95;;;23.60;99.90;;;;;;5032744;28;20410;-59
2023/03/14 06:07:00;;;;;;;10.40;2.20;;;23.50;99.90;;;;;;5041561;28;20108;-58
2023/03/14 06:09:28;;;;;;;9.32;1.75;;;23.50;99.90;;;;;;5032098;28;20116;-61
2023/03/14 06:11:55;;;;;;;8.32;1.88;;;23.60;99.90;;;;;;5031978;28;20044;-59
2023/03/14 06:14:22;;;;;;;5.20;2.58;;;23.60;99.90;;;;;;5041747;28;20020;-58
2023/03/14 06:16:52;;;;;;;6.63;2.00;;;23.60;99.90;;;;;;5027388;28;20022;-58
2023/03/14 06:19:20;;;;;;;8.23;2.08;;;23.50;99.90;;;;;;5021928;28;20026;-59
2023/03/14 06:21:48;;;;;;;6.43;1.90;;;23.50;99.90;;;;;;5027759;28;20083;-59
2023/03/14 06:24:15;;;;;;;12.05;3.05;;;23.50;99.90;;;;;;5023151;28;20038;-58
2023/03/14 06:26:43;;;;;;;8.38;2.45;;;23.40;99.90;;;;;;5039528;28;20028;-58
2023/03/14 06:29:10;;;;;;;10.88;2.65;;;23.30;99.90;;;;;;5036080;28;20056;-59
2023/03/14 06:31:38;;;;;;;8.70;2.53;;;23.20;99.90;;;;;;5043086;28;20022;-59
2023/03/14 06:34:05;;;;;;;11.52;2.88;;;23.20;99.90;;;;;;5045635;28;20045;-58
2023/03/14 06:36:33;;;;;;;6.07;2.10;;;23.10;99.90;;;;;;5026256;28;20026;-58
2023/03/14 06:39:00;;;;;;;9.65;2.50;;;23.00;99.90;;;;;;5028268;28;20041;-58
2023/03/14 06:41:28;;;;;;;13.13;2.92;;;23.00;99.90;;;;;;5044041;28;20025;-58
2023/03/14 06:43:55;;;;;;;7.03;2.05;;;23.00;99.90;;;;;;5041813;28;20131;-58
2023/03/14 06:46:23;;;;;;;9.50;2.42;;;23.00;99.90;;;;;;5025956;28;20504;-58
2023/03/14 06:48:50;;;;;;;7.88;2.38;;;23.10;99.90;;;;;;5029242;28;20092;-58
2023/03/14 06:51:18;;;;;;;8.68;1.92;;;23.20;99.90;;;;;;5034695;28;20022;-58
2023/03/14 06:53:45;;;;;;;7.30;1.90;;;23.10;99.90;;;;;;5030018;28;20053;-58
2023/03/14 06:56:13;;;;;;;5.10;2.60;;;23.10;99.90;;;;;;5028791;28;20478;-58
2023/03/14 06:58:40;;;;;;;8.73;2.67;;;23.10;99.90;;;;;;5022863;28;20040;-60
2023/03/14 07:01:25;;;;;;;9.35;2.65;;;23.00;99.90;;;;;;5020616;28;20029;-57
2023/03/14 07:03:53;;;;;;;7.68;2.03;;;22.90;99.90;;;;;;5030857;28;20036;-59
2023/03/14 07:06:21;;;;;;;8.18;2.47;;;22.90;99.90;;;;;;5024316;28;20064;-59
2023/03/14 07:08:49;;;;;;;9.45;2.67;;;22.90;99.90;;;;;;5038353;28;20025;-59
2023/03/14 07:11:16;;;;;;;8.40;2.33;;;22.80;99.90;;;;;;5043067;28;20112;-59
2023/03/14 07:13:44;;;;;;;9.85;2.58;;;22.80;99.90;;;;;;5031059;28;20486;-59
2023/03/14 07:16:11;;;;;;;8.75;2.13;;;22.70;99.90;;;;;;5031791;28;20113;-60
2023/03/14 07:18:39;;;;;;;10.05;2.78;;;22.70;99.90;;;;;;5036074;28;20064;-60
2023/03/14 07:21:08;;;;;;;9.85;2.55;;;22.60;99.90;;;;;;5023891;28;20069;-60
2023/03/14 07:23:36;;;;;;;7.07;2.67;;;22.50;99.90;;;;;;5025283;28;20037;-59
2023/03/14 07:26:04;;;;;;;5.32;1.90;;;22.50;99.90;;;;;;5028376;28;20028;-60
2023/03/14 07:28:31;;;;;;;8.68;2.10;;;22.50;99.90;;;;;;5018557;28;20022;-59
2023/03/14 07:30:58;;;;;;;4.78;1.75;;;22.40;99.90;;;;;;5020059;28;20540;-59
2023/03/14 07:33:26;;;;;;;8.00;2.30;;;22.40;99.90;;;;;;5012197;28;20041;-60
2023/03/14 07:35:53;;;;;;;9.63;2.20;;;22.40;99.90;;;;;;5023693;28;20465;-60
2023/03/14 07:38:21;;;;;;;7.47;2.75;;;22.30;99.90;;;;;;5026074;28;20032;-60
2023/03/14 07:40:48;;;;;;;7.28;1.77;;;22.20;99.90;;;;;;5028861;28;20021;-61
2023/03/14 07:43:16;;;;;;;3.92;0.95;;;22.20;99.90;;;;;;5019503;28;20490;-60
2023/03/14 07:45:46;;;;;;;7.32;1.67;;;22.00;99.90;;;;;;5015177;28;20099;-60
2023/03/14 07:48:14;;;;;;;6.60;2.03;;;21.90;99.90;;;;;;5019782;28;20195;-61
2023/03/14 07:50:41;;;;;;;7.72;2.15;;;21.70;99.90;;;;;;5023732;28;20055;-62
2023/03/14 07:53:09;;;;;;;8.20;2.05;;;21.60;99.90;;;;;;5019083;28;20436;-61
2023/03/14 07:55:37;;;;;;;5.43;1.90;;;21.40;99.90;;;;;;5020110;28;20053;-61
2023/03/14 07:58:04;;;;;;;8.18;1.67;;;21.30;99.90;;;;;;5016638;28;20084;-61
2023/03/14 08:00:32;;;;;;;5.22;1.52;;;21.10;99.90;;;;;;5023422;28;20393;-60
2023/03/14 08:03:00;;;;;;;5.03;1.55;;;21.00;99.90;;;;;;5021498;28;20245;-61
2023/03/14 08:05:27;;;;;;;5.13;1.90;;;20.90;99.90;;;;;;5025485;28;20038;-60
2023/03/14 08:07:55;;;;;;;5.30;1.70;;;20.80;99.90;;;;;;5022654;28;20040;-60
2023/03/14 08:10:23;;;;;;;5.18;1.63;;;20.70;99.90;;;;;;5028584;28;20347;-61
2023/03/14 08:12:53;;;;;;;4.22;1.77;;;20.60;99.90;;;;;;5024325;28;20033;-61
2023/03/14 08:15:21;;;;;;;7.07;1.77;;;20.60;99.90;;;;;;5021611;28;20033;-61
2023/03/14 08:17:53;;;;;;;10.27;2.00;;;20.50;99.90;;;;;;5034366;28;20683;-61
2023/03/14 08:20:22;;;;;;;5.30;2.90;;;20.50;99.90;;;;;;5015240;28;20035;-61
2023/03/14 08:22:50;;;;;;;7.32;1.83;;;20.40;99.90;;;;;;5026172;28;20147;-59
2023/03/14 08:25:18;;;;;;;8.20;2.20;;;20.40;99.90;;;;;;5023062;28;20025;-60
2023/03/14 08:27:45;;;;;;;8.52;1.95;;;20.40;99.90;;;;;;5022072;28;20026;-61
2023/03/14 08:30:15;;;;;;;5.75;1.50;;;20.30;99.90;;;;;;5027101;28;20054;-58
2023/03/14 08:32:43;;;;;;;4.57;1.60;;;20.20;99.90;;;;;;5029815;28;20036;-59
2023/03/14 08:35:11;;;;;;;3.45;1.50;;;20.20;99.90;;;;;;5019872;28;20044;-59
2023/03/14 08:37:39;;;;;;;3.08;1.40;;;20.20;99.90;;;;;;5020240;28;20033;-58
2023/03/14 08:40:09;;;;;;;8.15;1.60;;;20.10;99.90;;;;;;5027509;28;20022;-60
2023/03/14 08:42:38;;;;;;;6.35;1.98;;;20.10;99.90;;;;;;5020572;28;20022;-60
2023/03/14 08:45:07;;;;;;;10.10;2.80;;;20.10;99.90;;;;;;5022216;28;20021;-60
2023/03/14 08:47:34;;;;;;;10.35;2.63;;;20.10;99.90;;;;;;5020041;28;20133;-58
2023/03/14 08:50:03;;;;;;;4.82;2.00;;;20.10;99.90;;;;;;5029658;28;20057;-58
2023/03/14 08:52:32;;;;;;;7.15;2.53;;;20.10;99.90;;;;;;5023284;28;20025;-59
2023/03/14 08:55:00;;;;;;;6.88;2.33;;;20.20;99.90;;;;;;5020213;28;20026;-58
2023/03/14 08:57:27;;;;;;;6.88;2.55;;;20.20;99.90;;;;;;5024668;28;20049;-58
2023/03/14 08:59:56;;;;;;;4.80;1.85;;;20.20;99.90;;;;;;5025173;28;20025;-58
2023/03/14 09:02:24;;;;;;;5.22;2.10;;;20.10;99.90;;;;;;5024780;28;20068;-58
2023/03/14 09:04:52;;;;;;;7.50;1.77;;;20.10;99.90;;;;;;5015040;28;20501;-58
2023/03/14 09:07:20;;;;;;;7.45;2.10;;;20.10;99.90;;;;;;5014696;28;20497;-58
2023/03/14 09:09:48;;;;;;;7.07;4.32;;;20.10;99.90;;;;;;5032432;28;20029;-58
2023/03/14 09:12:15;;;;;;;8.75;4.80;;;20.10;99.90;;;;;;5024376;28;20033;-58
2023/03/14 09:14:43;;;;;;;13.02;5.80;;;20.00;99.90;;;;;;5024590;28;20092;-58
2023/03/14 09:17:10;;;;;;;16.08;6.80;;;20.00;99.90;;;;;;5022518;28;20037;-60
2023/03/14 09:19:38;;;;;;;12.98;5.97;;;20.00;99.90;;;;;;5022453;28;20113;-58
2023/03/14 09:22:05;;;;;;;15.18;5.93;;;20.00;99.90;;;;;;5023843;28;20034;-58
2023/03/14 09:24:33;;;;;;;14.25;6.32;;;20.00;99.90;;;;;;5039667;28;20765;-58
2023/03/14 09:27:00;;;;;;;13.00;6.93;;;20.00;99.90;;;;;;5014136;28;20111;-59
2023/03/14 09:29:27;;;;;;;10.63;6.15;;;20.00;99.90;;;;;;5023753;28;20029;-58
2023/03/14 09:31:56;;;;;;;14.10;6.85;;;20.00;99.90;;;;;;5028223;28;20021;-58
2023/03/14 09:34:24;;;;;;;15.43;9.52;;;20.10;99.90;;;;;;5020522;28;20030;-58
2023/03/14 09:36:51;;;;;;;15.90;8.50;;;20.10;99.90;;;;;;5027965;28;20024;-58
2023/03/14 09:39:19;;;;;;;19.25;9.73;;;20.10;99.90;;;;;;5018232;28;20760;-58
2023/03/14 09:41:50;;;;;;;17.63;8.30;;;20.10;99.90;;;;;;5016569;28;20037;-58
2023/03/14 09:44:23;;;;;;;16.00;7.25;;;20.10;99.90;;;;;;5027007;28;20551;-59
2023/03/14 09:46:54;;;;;;;23.38;14.07;;;20.10;99.90;;;;;;5027023;28;20040;-59
2023/03/14 09:49:29;;;;;;;27.42;19.23;;;20.00;99.90;;;;;;5020363;28;20101;-58
2023/03/14 09:51:59;;;;;;;27.85;17.45;;;20.00;99.90;;;;;;5030218;28;20095;-59
2023/03/14 09:54:43;;;;;;;23.85;14.75;;;19.90;99.90;;;;;;5021260;28;20457;-59
2023/03/14 09:57:18;;;;;;;27.02;12.60;;;19.80;99.90;;;;;;5025997;28;20371;-58
2023/03/14 09:59:48;;;;;;;24.00;12.25;;;19.80;99.90;;;;;;5018467;28;20518;-59
2023/03/14 10:02:36;;;;;;;22.65;13.65;;;19.80;99.90;;;;;;5029811;28;20063;-58
2023/03/14 10:05:17;;;;;;;27.92;14.40;;;19.80;99.90;;;;;;5017150;28;20173;-58
2023/03/14 10:07:45;;;;;;;19.00;14.35;;;19.70;99.90;;;;;;5017661;28;20612;-59
2023/03/14 10:10:19;;;;;;;24.58;16.13;;;19.60;99.90;;;;;;5018458;28;20029;-59
2023/03/14 10:13:01;;;;;;;29.95;16.83;;;19.70;99.90;;;;;;5011844;28;20030;-59
2023/03/14 10:15:33;;;;;;;24.02;14.45;;;19.60;99.90;;;;;;5016959;28;20635;-59
2023/03/14 10:18:02;;;;;;;32.20;19.08;;;19.60;99.90;;;;;;5019397;28;20033;-59
2023/03/14 10:20:42;;;;;;;24.83;15.65;;;19.60;99.90;;;;;;5015581;28;20038;-58
2023/03/14 10:23:12;;;;;;;25.30;14.00;;;19.60;99.90;;;;;;5018974;28;20034;-58
2023/03/14 10:25:45;;;;;;;12.63;6.32;;;19.60;99.90;;;;;;5017851;28;20076;-65
2023/03/14 10:28:27;;;;;;;8.75;4.40;;;19.60;99.90;;;;;;5019603;28;20029;-59
2023/03/14 10:30:55;;;;;;;8.93;3.03;;;19.60;99.90;;;;;;5018389;28;20034;-58
2023/03/14 10:33:28;;;;;;;13.23;3.53;;;19.50;99.90;;;;;;5021579;28;20025;-59
2023/03/14 10:36:18;;;;;;;7.47;2.88;;;19.50;99.90;;;;;;5027212;28;20034;-60
2023/03/14 10:38:45;;;;;;;5.75;3.28;;;19.60;99.90;;;;;;5020874;28;20125;-58
2023/03/14 10:41:33;;;;;;;9.85;2.90;;;19.60;99.90;;;;;;5020345;28;20402;-59
2023/03/14 10:44:02;;;;;;;7.03;3.22;;;19.60;99.90;;;;;;5014864;28;20041;-58
2023/03/14 10:46:33;;;;;;;12.73;3.20;;;19.60;99.90;;;;;;5016969;28;20394;-59
2023/03/14 10:49:06;;;;;;;8.23;3.33;;;19.60;99.90;;;;;;5018566;28;20037;-59
2023/03/14 10:51:33;;;;;;;10.13;3.75;;;19.60;99.90;;;;;;5022302;28;20033;-59
2023/03/14 10:54:24;;;;;;;10.32;3.20;;;19.60;99.90;;;;;;5017413;28;20100;-61
2023/03/14 10:57:05;;;;;;;7.43;3.78;;;19.60;99.90;;;;;;5018171;28;20045;-59
2023/03/14 10:59:42;;;;;;;8.13;4.05;;;19.50;99.90;;;;;;5026676;28;20882;-59
2023/03/14 11:02:37;;;;;;;15.15;5.05;;;19.50;99.90;;;;;;5023056;28;20034;-65
2023/03/14 11:05:25;;;;;;;15.18;5.07;;;19.60;99.90;;;;;;5022941;28;20391;-59
2023/03/14 11:08:02;;;;;;;8.95;4.97;;;19.50;99.90;;;;;;5032890;28;20095;-59
2023/03/14 11:10:42;;;;;;;14.25;4.90;;;19.60;99.90;;;;;;5023825;28;20028;-59
2023/03/14 11:13:25;;;;;;;9.52;4.22;;;19.60;99.90;;;;;;5027159;28;20033;-62
2023/03/14 11:16:43;;;;;;;7.88;4.10;;;19.60;99.90;;;;;;5016671;28;20103;-59
2023/03/14 11:19:31;;;;;;;12.48;4.43;;;19.60;99.90;;;;;;4999472;28;20049;-58
2023/03/14 11:22:37;;;;;;;14.10;4.82;;;19.60;99.90;;;;;;5017026;28;20029;-59
2023/03/14 11:25:18;;;;;;;14.25;5.40;;;19.60;99.90;;;;;;5014625;28;20045;-58
2023/03/14 11:27:55;;;;;;;17.52;6.10;;;19.60;99.90;;;;;;5023110;28;20107;-59
2023/03/14 11:30:42;;;;;;;11.65;7.00;;;19.70;99.90;;;;;;5032716;28;20082;-59
2023/03/14 11:33:23;;;;;;;10.23;5.45;;;19.70;99.90;;;;;;5016610;28;20036;-61
2023/03/14 11:35:58;;;;;;;12.10;5.38;;;19.70;99.90;;;;;;5027269;28;20030;-59
2023/03/14 11:38:37;;;;;;;15.10;5.97;;;19.70;99.90;;;;;;5027725;28;20412;-59
2023/03/14 11:41:09;;;;;;;16.30;8.00;;;19.70;99.90;;;;;;5029078;28;20044;-58
2023/03/14 11:43:42;;;;;;;17.63;6.60;;;19.70;99.90;;;;;;5046779;28;20124;-58
2023/03/14 11:46:39;;;;;;;12.55;4.95;;;19.70;99.90;;;;;;5024933;28;20386;-58
2023/03/14 11:49:42;;;;;;;11.43;4.32;;;19.70;99.90;;;;;;5026578;28;20022;-59
2023/03/14 11:52:26;;;;;;;12.25;4.00;;;19.70;99.90;;;;;;5032529;28;20396;-59
2023/03/14 11:54:58;;;;;;;8.93;3.88;;;19.60;99.90;;;;;;5024482;28;20040;-59
2023/03/14 11:57:26;;;;;;;11.52;3.72;;;19.60;99.90;;;;;;5033028;28;20429;-59
2023/03/14 12:00:12;;;;;;;13.85;3.40;;;19.60;99.90;;;;;;5024545;28;20052;-59
2023/03/14 12:02:48;;;;;;;19.10;4.15;;;19.50;99.90;;;;;;5017801;28;20030;-59
2023/03/14 12:05:38;;;;;;;9.80;4.43;;;19.50;99.90;;;;;;5024071;28;20103;-58
2023/03/14 12:08:09;;;;;;;15.82;4.13;;;19.50;99.90;;;;;;5024918;28;20116;-58
2023/03/14 12:10:41;;;;;;;7.65;4.15;;;19.40;99.90;;;;;;5033956;28;20032;-59
2023/03/14 12:13:14;;;;;;;9.35;3.80;;;19.40;99.90;;;;;;5035608;28;20063;-58
2023/03/14 12:15:49;;;;;;;10.10;3.90;;;19.40;99.90;;;;;;5034439;28;20116;-59
2023/03/14 12:18:42;;;;;;;17.90;3.80;;;19.40;99.90;;;;;;5023261;28;20022;-59
2023/03/14 12:21:13;;;;;;;16.30;4.20;;;19.40;99.90;;;;;;5024226;28;20057;-59
2023/03/14 12:24:17;;;;;;;11.77;3.45;;;19.30;99.90;;;;;;5041511;28;20034;-59
2023/03/14 12:26:58;;;;;;;10.50;3.45;;;19.30;99.90;;;;;;5035764;28;20030;-59
2023/03/14 12:29:26;;;;;;;14.73;3.55;;;19.30;99.90;;;;;;5024169;28;20030;-58
2023/03/14 12:32:28;;;;;;;13.95;3.40;;;19.20;99.90;;;;;;5031864;28;20103;-59
2023/03/14 12:34:56;;;;;;;13.68;3.63;;;19.20;99.90;;;;;;5025592;28;20037;-58
2023/03/14 12:37:41;;;;;;;12.60;3.10;;;19.20;99.90;;;;;;5033877;28;20164;-59
2023/03/14 12:40:31;;;;;;;10.68;3.55;;;19.10;99.90;;;;;;5020276;28;20021;-58
2023/03/14 12:43:04;;;;;;;8.02;3.88;;;19.10;99.90;;;;;;5026014;28;20199;-58
2023/03/14 12:45:32;;;;;;;11.18;3.47;;;19.10;99.90;;;;;;5017833;28;20025;-58
2023/03/14 12:48:16;;;;;;;8.32;3.15;;;19.00;99.90;;;;;;5023845;28;20017;-59
2023/03/14 12:50:47;;;;;;;6.70;3.30;;;18.90;99.90;;;;;;5026930;28;20091;-59
2023/03/14 12:53:32;;;;;;;7.20;3.55;;;18.90;99.90;;;;;;5018494;28;20033;-59
2023/03/14 12:56:22;;;;;;;11.60;4.22;;;18.80;99.90;;;;;;5015391;28;20043;-58
2023/03/14 12:58:52;;;;;;;10.25;4.07;;;18.80;99.90;;;;;;5019485;28;20034;-59
2023/03/14 13:01:21;;;;;;;11.55;4.50;;;18.70;99.90;;;;;;5023169;28;20387;-58
2023/03/14 13:03:56;;;;;;;7.95;4.68;;;18.60;99.90;;;;;;5019238;28;20033;-58
2023/03/14 13:06:47;;;;;;;13.02;6.28;;;18.60;99.90;;;;;;5023406;28;20045;-61